KDEH/DEH METAR and TAF weather

Enter ICAO airport designator
Station Type Date Time Source
KDEH METAR 2019/08/25 02:35 UTC NOAA

KDEH 250235Z AUTO 12005KT 10SM FEW046 16/14 A3017 RMK AO2


Station Type Date Time Source
KDEH Decoded METAR 2019/08/25 02:35 UTC NOAA

Station name not available
Aug 24, 2019 - 10:35 PM EDT / 2019.08.25 0235 UTC
Wind: from the ESE (120 degrees) at 6 MPH (5 KT):0
Visibility: 10 mile(s):0
Sky conditions: mostly clear
Temperature: 60 F (16 C)
Dew Point: 57 F (14 C)
Relative Humidity: 87%
Pressure (altimeter): 30.17 in. Hg (1021 hPa)
ob: KDEH 250235Z AUTO 12005KT 10SM FEW046 16/14 A3017 RMK AO2
cycle: 2

Station Type Date Time Source
KDEH TAF UTC NOAA

Error!

Example: see airport list